createdAt,value
2024-01-06T00:00:56.901Z,6.67
2024-01-06T00:01:56.777Z,6.67
2024-01-06T00:02:56.794Z,6.71
2024-01-06T00:03:56.850Z,6.73
2024-01-06T00:04:56.787Z,6.78
2024-01-06T00:05:56.731Z,6.68
2024-01-06T00:06:56.864Z,6.67
2024-01-06T00:07:56.713Z,6.70
2024-01-06T00:08:56.712Z,6.61
2024-01-06T00:09:56.741Z,6.60
2024-01-06T00:10:56.694Z,6.68
2024-01-06T00:11:56.713Z,6.60
2024-01-06T00:12:56.760Z,6.49
2024-01-06T00:13:56.711Z,6.65
2024-01-06T00:14:56.673Z,6.68
2024-01-06T00:15:56.701Z,6.70
2024-01-06T00:16:56.659Z,6.63
2024-01-06T00:17:56.748Z,6.63
2024-01-06T00:18:56.801Z,6.55
2024-01-06T00:19:56.926Z,6.64
2024-01-06T00:20:56.654Z,6.57
2024-01-06T00:21:56.725Z,6.63
2024-01-06T00:22:56.610Z,6.55
2024-01-06T00:23:56.616Z,6.63
2024-01-06T00:24:56.678Z,6.53
2024-01-06T00:25:56.629Z,6.49
2024-01-06T00:26:56.611Z,6.46
2024-01-06T00:27:56.624Z,6.46
2024-01-06T00:28:56.587Z,6.49
2024-01-06T00:29:56.570Z,6.45
2024-01-06T00:30:56.708Z,6.50
2024-01-06T00:31:56.581Z,6.49
2024-01-06T00:32:56.623Z,6.46
2024-01-06T00:33:56.667Z,6.56
2024-01-06T00:34:56.598Z,6.43
2024-01-06T00:35:56.535Z,6.45
2024-01-06T00:36:56.577Z,6.49
2024-01-06T00:37:56.576Z,6.40
2024-01-06T00:38:56.513Z,6.50
2024-01-06T00:39:56.499Z,6.49
2024-01-06T00:40:56.605Z,6.42
2024-01-06T00:41:56.488Z,6.46
2024-01-06T00:42:56.510Z,6.43
2024-01-06T00:43:56.473Z,6.46
2024-01-06T00:44:56.464Z,6.40
2024-01-06T00:45:56.522Z,6.35
2024-01-06T00:46:56.475Z,6.28
2024-01-06T00:47:56.575Z,6.21
2024-01-06T00:48:56.573Z,6.21
2024-01-06T00:49:56.424Z,6.28
2024-01-06T00:50:56.430Z,6.18
2024-01-06T00:51:56.499Z,6.19
2024-01-06T00:52:56.444Z,6.12
2024-01-06T00:53:56.409Z,6.25
2024-01-06T00:54:56.403Z,6.24
2024-01-06T00:55:56.403Z,6.25
2024-01-06T00:56:58.555Z,6.27
2024-01-06T00:57:56.401Z,6.25
2024-01-06T00:58:56.385Z,6.27
2024-01-06T00:59:56.366Z,6.25
2024-01-06T01:00:56.419Z,6.19
2024-01-06T01:01:56.377Z,6.28
2024-01-06T01:02:56.349Z,6.13
2024-01-06T01:03:56.424Z,6.18
2024-01-06T01:04:56.443Z,6.25
2024-01-06T01:05:56.389Z,6.28
2024-01-06T01:06:56.410Z,6.18
2024-01-06T01:07:56.312Z,6.11
2024-01-06T01:09:03.903Z,6.21
2024-01-06T01:09:56.380Z,6.27
2024-01-06T01:10:56.343Z,6.09
2024-01-06T01:11:56.291Z,6.12
2024-01-06T01:12:56.317Z,6.06
2024-01-06T01:13:56.346Z,6.11
2024-01-06T01:14:56.275Z,6.05
2024-01-06T01:15:56.406Z,5.98
2024-01-06T01:16:56.261Z,6.06
2024-01-06T01:17:56.458Z,5.97
2024-01-06T01:18:56.346Z,6.02
2024-01-06T01:19:56.458Z,6.08
2024-01-06T01:20:56.249Z,5.90
2024-01-06T01:21:56.306Z,5.95
2024-01-06T01:22:56.230Z,5.91
2024-01-06T01:23:56.227Z,6.08
2024-01-06T01:24:56.238Z,5.94
2024-01-06T01:25:56.207Z,5.94
2024-01-06T01:26:56.217Z,5.90
2024-01-06T01:27:56.248Z,5.90
2024-01-06T01:28:56.174Z,6.02
2024-01-06T01:29:56.310Z,5.93
2024-01-06T01:30:56.499Z,5.98
2024-01-06T01:31:56.287Z,5.97
2024-01-06T01:32:56.259Z,5.98
2024-01-06T01:33:56.254Z,5.95
2024-01-06T01:34:56.227Z,5.97
2024-01-06T01:35:56.692Z,5.97
2024-01-06T01:36:56.129Z,5.90
2024-01-06T01:37:56.120Z,5.85
2024-01-06T01:38:56.123Z,5.94
2024-01-06T01:39:56.109Z,5.87
2024-01-06T01:40:56.160Z,5.87
2024-01-06T01:41:56.096Z,5.98
2024-01-06T01:42:56.094Z,5.98
2024-01-06T01:43:56.083Z,5.95
2024-01-06T01:44:56.079Z,5.90
2024-01-06T01:45:56.205Z,5.82
2024-01-06T01:46:56.063Z,5.88
2024-01-06T01:47:56.126Z,5.85
2024-01-06T01:48:56.226Z,5.87
2024-01-06T01:49:56.135Z,5.94
2024-01-06T01:50:56.131Z,5.85
2024-01-06T01:51:56.144Z,5.82
2024-01-06T01:52:56.037Z,5.84
2024-01-06T01:53:56.018Z,5.85
2024-01-06T01:54:56.115Z,5.85
2024-01-06T01:55:56.029Z,5.88
2024-01-06T01:56:56.050Z,5.84
2024-01-06T01:57:56.018Z,5.84
2024-01-06T01:58:56.013Z,5.88
2024-01-06T01:59:55.970Z,5.88
2024-01-06T02:00:56.179Z,5.82
2024-01-06T02:01:55.978Z,5.95
2024-01-06T02:02:55.974Z,5.88
2024-01-06T02:03:55.972Z,5.75
2024-01-06T02:04:55.980Z,5.77
2024-01-06T02:05:55.965Z,5.72
2024-01-06T02:06:55.933Z,5.77
2024-01-06T02:07:55.910Z,5.76
2024-01-06T02:08:55.917Z,5.82
2024-01-06T02:09:55.929Z,5.80
2024-01-06T02:10:55.904Z,5.85
2024-01-06T02:11:56.145Z,5.77
2024-01-06T02:12:55.951Z,5.73
2024-01-06T02:13:55.952Z,5.76
2024-01-06T02:14:55.872Z,5.75
2024-01-06T02:15:55.921Z,5.73
2024-01-06T02:16:55.881Z,5.88
2024-01-06T02:17:56.165Z,5.84
2024-01-06T02:18:55.975Z,5.84
2024-01-06T02:19:55.883Z,5.82
2024-01-06T02:20:55.834Z,5.76
2024-01-06T02:21:55.937Z,5.69
2024-01-06T02:22:55.810Z,5.79
2024-01-06T02:23:55.794Z,5.77
2024-01-06T02:24:55.857Z,5.88
2024-01-06T02:25:55.790Z,5.85
2024-01-06T02:26:55.811Z,5.87
2024-01-06T02:27:55.806Z,5.91
2024-01-06T02:28:55.790Z,5.79
2024-01-06T02:29:55.761Z,5.75
2024-01-06T02:30:55.846Z,5.76
2024-01-06T02:31:55.770Z,5.77
2024-01-06T02:32:55.909Z,5.76
2024-01-06T02:33:55.805Z,5.72
2024-01-06T02:34:55.772Z,5.84
2024-01-06T02:35:55.706Z,5.67
2024-01-06T02:36:55.824Z,5.76
2024-01-06T02:37:55.697Z,5.85
2024-01-06T02:38:55.692Z,5.76
2024-01-06T02:39:55.703Z,5.77
2024-01-06T02:40:55.681Z,5.80
2024-01-06T02:41:55.717Z,5.73
2024-01-06T02:42:55.702Z,5.75
2024-01-06T02:43:55.663Z,5.72
2024-01-06T02:44:55.694Z,5.82
2024-01-06T02:45:55.688Z,5.72
2024-01-06T02:46:55.646Z,5.76
2024-01-06T02:47:55.815Z,5.79
2024-01-06T02:48:55.699Z,5.72
2024-01-06T02:49:55.830Z,5.69
2024-01-06T02:50:55.661Z,5.79
2024-01-06T02:51:55.673Z,5.77
2024-01-06T02:52:55.602Z,5.77
2024-01-06T02:53:55.597Z,5.84
2024-01-06T02:54:55.617Z,5.84
2024-01-06T02:55:55.584Z,5.80
2024-01-06T02:56:55.618Z,5.85
2024-01-06T02:57:55.698Z,5.90
2024-01-06T02:58:55.575Z,5.87
2024-01-06T02:59:55.572Z,5.88
2024-01-06T03:00:55.696Z,5.84
2024-01-06T03:01:55.563Z,5.77
2024-01-06T03:02:55.686Z,5.69
2024-01-06T03:03:55.652Z,5.76
2024-01-06T03:04:55.530Z,5.73
2024-01-06T03:05:55.550Z,5.75
2024-01-06T03:06:55.538Z,5.79
2024-01-06T03:07:55.508Z,5.90
2024-01-06T03:08:55.532Z,5.80
2024-01-06T03:09:55.580Z,5.82
2024-01-06T03:10:55.504Z,5.69
2024-01-06T03:11:55.471Z,5.77
2024-01-06T03:12:55.565Z,5.75
2024-01-06T03:13:55.504Z,5.82
2024-01-06T03:14:55.491Z,5.79
2024-01-06T03:15:55.491Z,5.76
2024-01-06T03:16:55.463Z,5.88
2024-01-06T03:17:55.606Z,5.91
2024-01-06T03:18:55.558Z,5.95
2024-01-06T03:19:55.505Z,5.94
2024-01-06T03:20:55.449Z,5.87
2024-01-06T03:21:55.516Z,5.85
2024-01-06T03:22:55.410Z,5.76
2024-01-06T03:23:55.411Z,5.82
2024-01-06T03:24:55.405Z,5.82
2024-01-06T03:25:55.753Z,5.84
2024-01-06T03:26:55.450Z,5.87
2024-01-06T03:27:55.444Z,5.77
2024-01-06T03:28:55.367Z,5.77
2024-01-06T03:29:55.365Z,5.80
2024-01-06T03:30:55.391Z,5.75
2024-01-06T03:31:55.403Z,5.70
2024-01-06T03:32:55.419Z,5.82
2024-01-06T03:33:55.392Z,5.70
2024-01-06T03:34:55.386Z,5.75
2024-01-06T03:35:55.345Z,5.82
2024-01-06T03:36:55.425Z,5.69
2024-01-06T03:37:55.350Z,5.80
2024-01-06T03:38:55.327Z,5.72
2024-01-06T03:39:55.332Z,5.66
2024-01-06T03:40:55.303Z,5.73
2024-01-06T03:41:55.324Z,5.70
2024-01-06T03:42:55.398Z,5.73
2024-01-06T03:43:55.275Z,5.67
2024-01-06T03:44:55.285Z,5.65
2024-01-06T03:45:55.371Z,5.72
2024-01-06T03:46:55.264Z,5.72
2024-01-06T03:47:55.354Z,5.73
2024-01-06T03:48:55.484Z,5.72
2024-01-06T03:49:55.257Z,5.76
2024-01-06T03:50:55.309Z,5.58
2024-01-06T03:51:55.293Z,5.76
2024-01-06T03:52:55.231Z,5.72
2024-01-06T03:53:55.236Z,5.70
2024-01-06T03:54:55.293Z,5.65
2024-01-06T03:55:55.253Z,5.58
2024-01-06T03:56:55.189Z,5.66
2024-01-06T03:57:55.362Z,5.75
2024-01-06T03:58:55.166Z,5.76
2024-01-06T03:59:55.214Z,5.73
2024-01-06T04:00:55.172Z,5.72
2024-01-06T04:01:55.152Z,5.61
2024-01-06T04:02:55.156Z,5.69
2024-01-06T04:03:55.212Z,5.62
2024-01-06T04:04:55.589Z,5.69
2024-01-06T04:05:55.264Z,5.66
2024-01-06T04:06:55.145Z,5.80
2024-01-06T04:07:55.169Z,5.76
2024-01-06T04:08:55.100Z,5.72
2024-01-06T04:09:55.144Z,5.90
2024-01-06T04:10:55.076Z,5.82
2024-01-06T04:11:55.084Z,5.85
2024-01-06T04:12:55.170Z,5.95
2024-01-06T04:13:55.129Z,5.93
2024-01-06T04:14:55.055Z,5.84
2024-01-06T04:15:55.092Z,5.77
2024-01-06T04:16:55.048Z,5.82
2024-01-06T04:17:55.143Z,5.93
2024-01-06T04:18:55.260Z,5.88
2024-01-06T04:19:55.105Z,5.84
2024-01-06T04:20:55.038Z,5.88
2024-01-06T04:21:55.052Z,5.82
2024-01-06T04:22:55.018Z,5.79
2024-01-06T04:23:55.038Z,5.88
2024-01-06T04:24:55.074Z,5.91
2024-01-06T04:25:54.999Z,5.88
2024-01-06T04:26:54.982Z,5.82
2024-01-06T04:27:55.071Z,5.93
2024-01-06T04:28:54.959Z,5.82
2024-01-06T04:29:55.036Z,5.90
2024-01-06T04:30:55.041Z,5.90
2024-01-06T04:31:55.060Z,5.88
2024-01-06T04:32:54.991Z,5.90
2024-01-06T04:33:55.053Z,5.91
2024-01-06T04:34:55.049Z,5.90
2024-01-06T04:35:55.103Z,5.85
2024-01-06T04:36:55.212Z,5.84
2024-01-06T04:37:54.914Z,5.90
2024-01-06T04:38:54.899Z,5.87
2024-01-06T04:39:54.945Z,5.77
2024-01-06T04:40:55.296Z,5.79
2024-01-06T04:41:54.878Z,5.82
2024-01-06T04:42:54.980Z,5.80
2024-01-06T04:43:54.866Z,5.70
2024-01-06T04:44:54.867Z,5.72
2024-01-06T04:45:54.893Z,5.66
2024-01-06T04:46:55.012Z,5.84
2024-01-06T04:47:54.967Z,5.76
2024-01-06T04:48:54.914Z,5.79
2024-01-06T04:49:54.884Z,5.77
2024-01-06T04:50:54.813Z,5.90
2024-01-06T04:51:54.926Z,5.85
2024-01-06T04:52:54.838Z,5.84
2024-01-06T04:53:54.825Z,5.95
2024-01-06T04:54:54.856Z,5.91
2024-01-06T04:55:54.790Z,5.93
2024-01-06T04:56:54.838Z,5.85
2024-01-06T04:57:54.814Z,6.00
2024-01-06T04:58:54.762Z,5.87
2024-01-06T04:59:54.749Z,5.87
2024-01-06T05:00:54.892Z,5.85
2024-01-06T05:01:54.750Z,5.93
2024-01-06T05:02:54.838Z,5.88
2024-01-06T05:03:54.824Z,5.85
2024-01-06T05:04:54.813Z,5.88
2024-01-06T05:05:54.705Z,5.85
2024-01-06T05:06:54.745Z,5.90
2024-01-06T05:07:54.937Z,5.90
2024-01-06T05:08:54.721Z,5.97
2024-01-06T05:09:54.749Z,5.85
2024-01-06T05:10:54.719Z,5.85
2024-01-06T05:11:54.666Z,5.95
2024-01-06T05:12:54.737Z,5.85
2024-01-06T05:13:54.686Z,5.88
2024-01-06T05:14:54.666Z,5.80
2024-01-06T05:15:54.864Z,5.93
2024-01-06T05:16:54.636Z,5.88
2024-01-06T05:17:54.741Z,5.97
2024-01-06T05:18:54.791Z,5.93
2024-01-06T05:19:54.677Z,5.94
2024-01-06T05:20:54.681Z,5.93
2024-01-06T05:21:54.648Z,6.02
2024-01-06T05:22:54.638Z,5.98
2024-01-06T05:23:54.602Z,5.95
2024-01-06T05:24:54.859Z,5.90
2024-01-06T05:25:54.642Z,6.02
2024-01-06T05:26:54.569Z,5.93
2024-01-06T05:27:54.632Z,6.02
2024-01-06T05:28:54.564Z,5.95
2024-01-06T05:29:54.555Z,5.93
2024-01-06T05:30:54.706Z,5.88
2024-01-06T05:31:54.702Z,5.93
2024-01-06T05:32:54.592Z,5.95
2024-01-06T05:33:54.621Z,5.97
2024-01-06T05:34:54.769Z,5.88
2024-01-06T05:35:54.570Z,5.94
2024-01-06T05:36:54.585Z,5.85
2024-01-06T05:37:54.531Z,5.87
2024-01-06T05:38:54.575Z,5.87
2024-01-06T05:39:54.591Z,5.87
2024-01-06T05:40:54.577Z,5.82
2024-01-06T05:41:54.507Z,5.94
2024-01-06T05:42:54.574Z,5.93
2024-01-06T05:43:54.459Z,5.87
2024-01-06T05:44:54.460Z,5.91
2024-01-06T05:45:54.477Z,5.88
2024-01-06T05:46:54.513Z,5.84
2024-01-06T05:47:54.573Z,5.95
2024-01-06T05:48:54.484Z,5.85
2024-01-06T05:49:54.441Z,5.94
2024-01-06T05:50:54.431Z,5.88
2024-01-06T05:51:54.417Z,5.91
2024-01-06T05:52:54.459Z,5.91
2024-01-06T05:53:54.395Z,5.80
2024-01-06T05:54:54.419Z,5.80
2024-01-06T05:55:54.377Z,5.80
2024-01-06T05:56:54.410Z,5.80
2024-01-06T05:57:54.573Z,5.75
2024-01-06T05:58:54.394Z,5.79
2024-01-06T05:59:54.358Z,5.70
2024-01-06T06:00:54.409Z,5.77
2024-01-06T06:01:54.413Z,5.84
2024-01-06T06:02:54.400Z,5.75
2024-01-06T06:03:54.451Z,5.79
2024-01-06T06:04:54.435Z,5.85
2024-01-06T06:05:54.399Z,5.82
2024-01-06T06:06:54.421Z,5.87
2024-01-06T06:07:54.310Z,5.93
2024-01-06T06:08:54.368Z,5.80
2024-01-06T06:09:54.516Z,5.85
2024-01-06T06:10:54.289Z,5.97
2024-01-06T06:11:54.299Z,5.95
2024-01-06T06:12:54.369Z,5.87
2024-01-06T06:13:54.303Z,5.97
2024-01-06T06:14:54.264Z,5.94
2024-01-06T06:15:54.315Z,6.02
2024-01-06T06:16:54.239Z,6.05
2024-01-06T06:17:54.298Z,5.90
2024-01-06T06:18:54.374Z,5.93
2024-01-06T06:19:54.304Z,5.85
2024-01-06T06:20:54.225Z,5.90
2024-01-06T06:21:54.370Z,5.93
2024-01-06T06:22:54.228Z,5.85
2024-01-06T06:23:54.244Z,5.93
2024-01-06T06:24:54.250Z,5.84
2024-01-06T06:25:54.182Z,5.85
2024-01-06T06:26:54.194Z,5.65
2024-01-06T06:27:54.208Z,5.66
2024-01-06T06:28:54.520Z,5.76
2024-01-06T06:29:54.167Z,5.82
2024-01-06T06:30:54.324Z,5.76
2024-01-06T06:31:54.188Z,5.79
2024-01-06T06:32:54.246Z,5.84
2024-01-06T06:33:54.296Z,5.88
2024-01-06T06:34:54.324Z,5.85
2024-01-06T06:35:54.126Z,5.91
2024-01-06T06:36:54.257Z,5.87
2024-01-06T06:37:54.172Z,5.82
2024-01-06T06:38:54.132Z,5.91
2024-01-06T06:39:54.204Z,5.93
2024-01-06T06:40:54.096Z,5.91
2024-01-06T06:41:54.079Z,5.82
2024-01-06T06:42:54.124Z,5.88
2024-01-06T06:43:54.108Z,5.90
2024-01-06T06:44:54.082Z,5.88
2024-01-06T06:45:54.184Z,5.82
2024-01-06T06:46:54.048Z,5.79
2024-01-06T06:47:54.053Z,5.87
2024-01-06T06:48:54.070Z,5.80
2024-01-06T06:49:54.060Z,5.85
2024-01-06T06:50:54.022Z,5.80
2024-01-06T06:51:54.053Z,5.77
2024-01-06T06:52:54.018Z,5.77
2024-01-06T06:53:54.022Z,5.75
2024-01-06T06:54:54.133Z,5.76
2024-01-06T06:55:54.008Z,5.82
2024-01-06T06:56:53.983Z,5.76
2024-01-06T06:57:53.995Z,5.72
2024-01-06T06:58:54.001Z,5.82
2024-01-06T06:59:53.958Z,5.82
2024-01-06T07:00:54.044Z,5.84
2024-01-06T07:01:53.974Z,5.77
2024-01-06T07:02:53.951Z,5.77
2024-01-06T07:03:53.983Z,5.76
2024-01-06T07:04:53.929Z,5.76
2024-01-06T07:05:54.096Z,5.79
2024-01-06T07:06:54.078Z,5.76
2024-01-06T07:07:53.929Z,5.77
2024-01-06T07:08:53.917Z,5.84
2024-01-06T07:10:00.969Z,5.85
2024-01-06T07:10:53.881Z,5.88
2024-01-06T07:11:53.890Z,5.85
2024-01-06T07:12:54.019Z,5.90
2024-01-06T07:13:53.868Z,5.98
2024-01-06T07:14:53.847Z,5.94
2024-01-06T07:15:56.183Z,5.88
2024-01-06T07:16:54.856Z,5.95
2024-01-06T07:17:54.198Z,5.93
2024-01-06T07:18:54.185Z,5.94
2024-01-06T07:19:54.078Z,5.84
2024-01-06T07:20:53.815Z,5.95
2024-01-06T07:21:53.863Z,5.87
2024-01-06T07:22:53.812Z,5.95
2024-01-06T07:23:53.814Z,5.98
2024-01-06T07:24:53.873Z,5.95
2024-01-06T07:25:53.956Z,5.98
2024-01-06T07:26:53.781Z,6.00
2024-01-06T07:27:55.674Z,5.90
2024-01-06T07:28:53.778Z,5.76
2024-01-06T07:29:53.782Z,5.75
2024-01-06T07:30:53.827Z,5.65
2024-01-06T07:31:53.827Z,5.76
2024-01-06T07:32:53.853Z,5.84
2024-01-06T07:33:53.908Z,5.80
2024-01-06T07:34:53.753Z,5.79
2024-01-06T07:35:53.721Z,5.90
2024-01-06T07:36:53.848Z,5.90
2024-01-06T07:37:53.696Z,5.82
2024-01-06T07:38:53.744Z,5.79
2024-01-06T07:39:53.751Z,5.84
2024-01-06T07:40:53.682Z,5.76
2024-01-06T07:41:53.716Z,5.82
2024-01-06T07:42:53.811Z,5.72
2024-01-06T07:43:53.677Z,5.77
2024-01-06T07:44:53.659Z,5.82
2024-01-06T07:45:53.823Z,5.84
2024-01-06T07:46:53.624Z,5.73
2024-01-06T07:47:53.728Z,5.80
2024-01-06T07:48:53.978Z,5.88
2024-01-06T07:49:53.618Z,5.85
2024-01-06T07:50:53.603Z,5.93
2024-01-06T07:51:53.706Z,5.80
2024-01-06T07:52:53.591Z,5.85
2024-01-06T07:53:53.606Z,5.88
2024-01-06T07:54:53.630Z,5.85
2024-01-06T07:55:53.577Z,5.90
2024-01-06T07:56:53.569Z,5.87
2024-01-06T07:57:53.668Z,5.93
2024-01-06T07:58:53.577Z,5.87
2024-01-06T07:59:53.571Z,5.80
2024-01-06T08:00:53.620Z,5.77
2024-01-06T08:01:53.592Z,5.75
2024-01-06T08:02:53.524Z,5.73
2024-01-06T08:03:53.747Z,5.76
2024-01-06T08:04:53.564Z,5.82
2024-01-06T08:05:53.555Z,5.79
2024-01-06T08:06:55.711Z,5.90
2024-01-06T08:07:53.488Z,5.85
2024-01-06T08:08:53.866Z,5.93
2024-01-06T08:09:53.504Z,5.90
2024-01-06T08:10:53.470Z,5.98
2024-01-06T08:11:53.589Z,5.85
2024-01-06T08:12:53.479Z,5.87
2024-01-06T08:13:53.471Z,5.80
2024-01-06T08:14:53.478Z,5.87
2024-01-06T08:15:53.490Z,5.84
2024-01-06T08:16:53.425Z,5.85
2024-01-06T08:17:53.534Z,5.91
2024-01-06T08:18:53.754Z,5.90
2024-01-06T08:19:53.530Z,5.97
2024-01-06T08:20:53.447Z,5.93
2024-01-06T08:21:53.437Z,5.94
2024-01-06T08:22:53.432Z,5.88
2024-01-06T08:23:53.418Z,5.87
2024-01-06T08:24:53.433Z,5.87
2024-01-06T08:25:53.398Z,6.05
2024-01-06T08:26:53.389Z,5.98
2024-01-06T08:27:53.506Z,6.05
2024-01-06T08:28:53.379Z,6.00
2024-01-06T08:29:53.378Z,6.08
2024-01-06T08:30:53.545Z,6.12
2024-01-06T08:31:53.685Z,6.02
2024-01-06T08:32:53.427Z,6.08
2024-01-06T08:33:53.549Z,6.02
2024-01-06T08:34:53.571Z,6.11
2024-01-06T08:35:53.323Z,6.13
2024-01-06T08:36:53.366Z,6.21
2024-01-06T08:37:53.298Z,6.08
2024-01-06T08:38:53.283Z,6.12
2024-01-06T08:39:53.498Z,6.13
2024-01-06T08:40:53.278Z,6.15
2024-01-06T08:41:53.275Z,6.13
2024-01-06T08:42:53.301Z,6.31
2024-01-06T08:43:53.255Z,6.18
2024-01-06T08:44:53.272Z,6.31
2024-01-06T08:45:53.351Z,6.38
2024-01-06T08:46:53.243Z,6.28
2024-01-06T08:47:53.407Z,6.42
2024-01-06T08:48:53.390Z,6.38
2024-01-06T08:49:53.320Z,6.38
2024-01-06T08:50:53.208Z,6.31
2024-01-06T08:51:53.238Z,6.49
2024-01-06T08:52:53.268Z,6.45
2024-01-06T08:53:53.198Z,6.57
2024-01-06T08:54:53.240Z,6.45
2024-01-06T08:55:53.172Z,6.43
2024-01-06T08:56:53.169Z,6.60
2024-01-06T08:57:53.192Z,6.52
2024-01-06T08:58:53.167Z,6.50
2024-01-06T08:59:53.172Z,6.46
2024-01-06T09:00:53.204Z,6.49
2024-01-06T09:01:53.209Z,6.35
2024-01-06T09:02:53.168Z,6.38
2024-01-06T09:03:53.309Z,6.37
2024-01-06T09:04:53.155Z,6.37
2024-01-06T09:05:53.114Z,6.32
2024-01-06T09:06:53.146Z,6.40
2024-01-06T09:07:55.160Z,6.34
2024-01-06T09:08:53.125Z,6.31
2024-01-06T09:09:53.191Z,6.34
2024-01-06T09:10:53.108Z,6.35
2024-01-06T09:11:53.086Z,6.42
2024-01-06T09:12:53.169Z,6.34
2024-01-06T09:13:53.052Z,6.35
2024-01-06T09:14:53.074Z,6.43
2024-01-06T09:15:53.128Z,6.40
2024-01-06T09:16:53.064Z,6.43
2024-01-06T09:17:53.065Z,6.37
2024-01-06T09:18:53.368Z,6.37
2024-01-06T09:19:53.046Z,6.35
2024-01-06T09:20:53.007Z,6.35
2024-01-06T09:21:53.119Z,6.38
2024-01-06T09:22:53.017Z,6.35
2024-01-06T09:23:52.995Z,6.43
2024-01-06T09:24:53.085Z,6.46
2024-01-06T09:25:52.988Z,6.49
2024-01-06T09:26:52.967Z,6.47
2024-01-06T09:27:53.168Z,6.52
2024-01-06T09:28:52.967Z,6.67
2024-01-06T09:29:52.956Z,6.57
2024-01-06T09:30:53.051Z,6.68
2024-01-06T09:31:52.999Z,6.63
2024-01-06T09:32:52.965Z,6.65
2024-01-06T09:33:52.993Z,6.64
2024-01-06T09:34:53.105Z,6.78
2024-01-06T09:35:52.916Z,6.82
2024-01-06T09:36:53.007Z,6.82
2024-01-06T09:37:52.924Z,6.82
2024-01-06T09:38:52.944Z,6.92
2024-01-06T09:39:52.946Z,6.85
2024-01-06T09:40:52.932Z,6.78
2024-01-06T09:41:52.920Z,6.82
2024-01-06T09:42:52.987Z,6.67
2024-01-06T09:43:52.893Z,6.67
2024-01-06T09:44:53.080Z,6.79
2024-01-06T09:45:52.929Z,6.83
2024-01-06T09:46:52.847Z,6.85
2024-01-06T09:47:53.024Z,6.82
2024-01-06T09:48:52.946Z,6.92
2024-01-06T09:49:52.881Z,6.92
2024-01-06T09:50:52.931Z,6.79
2024-01-06T09:51:52.870Z,6.92
2024-01-06T09:52:52.795Z,6.93
2024-01-06T09:53:52.792Z,6.85
2024-01-06T09:54:52.841Z,6.96
2024-01-06T09:55:52.866Z,6.99
2024-01-06T09:56:52.818Z,6.81
2024-01-06T09:57:52.831Z,6.83
2024-01-06T09:58:52.795Z,6.92
2024-01-06T09:59:52.753Z,6.83
2024-01-06T10:00:52.832Z,6.86
2024-01-06T10:01:52.809Z,7.03
2024-01-06T10:02:52.726Z,6.83
2024-01-06T10:03:52.911Z,7.00
2024-01-06T10:04:52.992Z,6.91
2024-01-06T10:05:52.770Z,6.96
2024-01-06T10:06:52.831Z,7.04
2024-01-06T10:07:52.714Z,7.06
2024-01-06T10:08:52.764Z,7.07
2024-01-06T10:09:52.718Z,7.03
2024-01-06T10:10:52.683Z,7.01
2024-01-06T10:11:52.675Z,7.03
2024-01-06T10:12:52.750Z,7.07
2024-01-06T10:13:53.276Z,7.04
2024-01-06T10:14:52.676Z,6.99
2024-01-06T10:15:52.700Z,6.99
2024-01-06T10:16:52.649Z,6.93
2024-01-06T10:17:52.703Z,6.85
2024-01-06T10:18:54.328Z,6.99
2024-01-06T10:19:52.686Z,6.82
2024-01-06T10:20:52.614Z,6.97
2024-01-06T10:21:52.716Z,6.82
2024-01-06T10:22:52.617Z,7.01
2024-01-06T10:23:52.712Z,6.99
2024-01-06T10:24:52.693Z,6.86
2024-01-06T10:25:56.306Z,6.91
2024-01-06T10:26:52.591Z,6.92
2024-01-06T10:27:52.625Z,6.83
2024-01-06T10:28:52.680Z,6.79
2024-01-06T10:29:52.579Z,6.88
2024-01-06T10:30:52.698Z,6.82
2024-01-06T10:31:55.040Z,6.67
2024-01-06T10:32:52.619Z,6.71
2024-01-06T10:33:52.709Z,6.64
2024-01-06T10:34:52.638Z,6.61
2024-01-06T10:35:52.512Z,6.43
2024-01-06T10:36:52.588Z,6.53
2024-01-06T10:37:52.515Z,6.43
2024-01-06T10:38:52.503Z,6.37
2024-01-06T10:39:52.523Z,6.52
2024-01-06T10:40:52.480Z,6.49
2024-01-06T10:41:53.081Z,6.45
2024-01-06T10:42:52.550Z,6.50
2024-01-06T10:43:52.477Z,6.50
2024-01-06T10:44:52.488Z,6.55
2024-01-06T10:45:52.500Z,6.56
2024-01-06T10:46:52.439Z,6.55
2024-01-06T10:47:52.503Z,6.61
2024-01-06T10:48:52.553Z,6.63
2024-01-06T10:49:55.749Z,6.60
2024-01-06T10:50:53.422Z,6.71
2024-01-06T10:51:52.452Z,6.67
2024-01-06T10:52:52.420Z,6.79
2024-01-06T10:53:52.414Z,6.55
2024-01-06T10:54:52.455Z,6.63
2024-01-06T10:55:55.422Z,6.65
2024-01-06T10:56:52.422Z,6.57
2024-01-06T10:57:52.481Z,6.68
2024-01-06T10:58:52.399Z,6.73
2024-01-06T10:59:52.352Z,6.65
2024-01-06T11:00:52.551Z,6.55
2024-01-06T11:01:52.398Z,6.47
2024-01-06T11:02:52.330Z,6.38
2024-01-06T11:03:52.458Z,6.47
2024-01-06T11:04:52.328Z,6.46
2024-01-06T11:05:52.350Z,6.55
2024-01-06T11:06:52.404Z,6.52
2024-01-06T11:07:52.525Z,6.55
2024-01-06T11:08:52.315Z,6.56
2024-01-06T11:09:52.370Z,6.53
2024-01-06T11:10:52.651Z,6.57
2024-01-06T11:11:52.280Z,6.52
2024-01-06T11:12:52.357Z,6.53
2024-01-06T11:13:52.284Z,6.53
2024-01-06T11:14:52.252Z,6.52
2024-01-06T11:15:52.720Z,6.61
2024-01-06T11:16:52.314Z,6.65
2024-01-06T11:17:52.384Z,6.52
2024-01-06T11:18:52.400Z,6.63
2024-01-06T11:19:52.288Z,6.64
2024-01-06T11:20:52.215Z,6.63
2024-01-06T11:21:52.288Z,6.63
2024-01-06T11:22:52.210Z,6.68
2024-01-06T11:23:52.198Z,6.73
2024-01-06T11:24:52.285Z,6.81
2024-01-06T11:25:52.190Z,6.75
2024-01-06T11:26:52.205Z,6.75
2024-01-06T11:27:52.251Z,6.74
2024-01-06T11:28:52.163Z,6.65
2024-01-06T11:29:52.154Z,6.79
2024-01-06T11:30:52.305Z,6.74
2024-01-06T11:31:52.198Z,6.74
2024-01-06T11:32:52.282Z,6.52
2024-01-06T11:33:52.334Z,6.60
2024-01-06T11:34:52.246Z,6.56
2024-01-06T11:35:52.112Z,6.57
2024-01-06T11:36:52.163Z,6.60
2024-01-06T11:37:52.112Z,6.42
2024-01-06T11:38:52.242Z,6.43
2024-01-06T11:39:52.141Z,6.63
2024-01-06T11:40:52.070Z,6.55
2024-01-06T11:41:52.062Z,6.50
2024-01-06T11:42:52.123Z,6.56
2024-01-06T11:43:52.085Z,6.56
2024-01-06T11:44:52.053Z,6.75
2024-01-06T11:45:52.088Z,6.70
2024-01-06T11:46:52.024Z,6.75
2024-01-06T11:47:52.075Z,6.73
2024-01-06T11:48:52.248Z,6.88
2024-01-06T11:49:52.115Z,6.91
2024-01-06T11:50:52.019Z,6.81
2024-01-06T11:51:52.120Z,6.83
2024-01-06T11:52:52.021Z,6.85
2024-01-06T11:53:52.008Z,6.88
2024-01-06T11:54:52.072Z,6.97
2024-01-06T11:55:52.256Z,6.86
2024-01-06T11:56:51.966Z,6.89
2024-01-06T11:57:52.121Z,6.74
2024-01-06T11:58:51.971Z,6.85
2024-01-06T11:59:51.949Z,6.74
2024-01-06T12:00:52.028Z,6.81
2024-01-06T12:01:52.063Z,6.74
2024-01-06T12:02:51.933Z,6.81
2024-01-06T12:03:51.996Z,6.85
2024-01-06T12:04:52.036Z,6.85
2024-01-06T12:05:51.955Z,6.86
2024-01-06T12:06:52.021Z,6.85
2024-01-06T12:07:51.898Z,6.86
2024-01-06T12:08:51.896Z,6.96
2024-01-06T12:09:51.928Z,7.03
2024-01-06T12:10:51.883Z,7.07
2024-01-06T12:11:51.904Z,7.06
2024-01-06T12:12:51.907Z,7.01
2024-01-06T12:13:51.846Z,7.03
2024-01-06T12:14:51.848Z,7.08
2024-01-06T12:15:52.059Z,7.03
2024-01-06T12:16:51.893Z,7.03
2024-01-06T12:17:51.909Z,7.01
2024-01-06T12:18:51.945Z,7.06
2024-01-06T12:19:51.826Z,7.04
2024-01-06T12:20:51.834Z,7.00
2024-01-06T12:21:51.864Z,6.92
2024-01-06T12:22:51.811Z,6.86
2024-01-06T12:23:51.786Z,6.89
2024-01-06T12:24:51.864Z,6.82
2024-01-06T12:25:51.777Z,6.88
2024-01-06T12:26:51.777Z,6.91
2024-01-06T12:27:51.890Z,6.78
2024-01-06T12:28:51.769Z,6.93
2024-01-06T12:29:51.747Z,6.93
2024-01-06T12:30:51.894Z,6.97
2024-01-06T12:31:51.990Z,6.79
2024-01-06T12:32:51.832Z,6.79
2024-01-06T12:33:51.859Z,6.75
2024-01-06T12:34:51.878Z,6.74
2024-01-06T12:35:51.707Z,6.81
2024-01-06T12:36:51.748Z,6.79
2024-01-06T12:37:51.721Z,6.64
2024-01-06T12:38:51.705Z,6.73
2024-01-06T12:39:51.726Z,6.74
2024-01-06T12:40:51.677Z,6.74
2024-01-06T12:41:51.681Z,6.78
2024-01-06T12:42:51.741Z,6.67
2024-01-06T12:43:51.651Z,6.71
2024-01-06T12:44:51.669Z,6.65
2024-01-06T12:45:51.657Z,6.83
2024-01-06T12:46:51.675Z,6.82
2024-01-06T12:47:51.769Z,6.78
2024-01-06T12:48:51.761Z,6.92
2024-01-06T12:49:51.656Z,6.85
2024-01-06T12:50:51.787Z,6.92
2024-01-06T12:51:51.757Z,6.93
2024-01-06T12:52:51.765Z,6.99
2024-01-06T12:53:51.597Z,7.03
2024-01-06T12:54:51.660Z,7.03
2024-01-06T12:55:51.584Z,7.15
2024-01-06T12:56:51.586Z,7.16
2024-01-06T12:57:51.668Z,7.21
2024-01-06T12:58:51.593Z,7.21
2024-01-06T12:59:51.721Z,7.31
2024-01-06T13:00:51.679Z,7.31
2024-01-06T13:01:51.657Z,7.36
2024-01-06T13:02:52.074Z,7.39
2024-01-06T13:03:51.781Z,7.37
2024-01-06T13:04:51.615Z,7.46
2024-01-06T13:05:51.563Z,7.37
2024-01-06T13:06:51.575Z,7.52
2024-01-06T13:07:51.509Z,7.44
2024-01-06T13:08:51.579Z,7.50
2024-01-06T13:09:51.548Z,7.52
2024-01-06T13:10:51.515Z,7.55
2024-01-06T13:11:51.499Z,7.40
2024-01-06T13:12:53.974Z,7.57
2024-01-06T13:13:51.474Z,7.44
2024-01-06T13:14:51.665Z,7.46
2024-01-06T13:15:51.634Z,7.40
2024-01-06T13:16:51.444Z,7.50
2024-01-06T13:17:51.638Z,7.52
2024-01-06T13:18:55.254Z,7.47